Terminal Aerodrome Forecast
Issued by NWS Topeka, KS

Home | Current Version | Previous Version | Text Only | Print | Product List | Glossary On
Versions: 1 2 3 4 5 6 7 8 9 10 11 12 13 14 15
000
FTUS43 KTOP 201123
TAFTOP
TAF
KTOP 201123Z 2012/2112 18008KT P6SM BKN012
     FM210000 13004KT P6SM SCT008
     FM210200 13004KT 5SM BR SCT006
     FM210400 12004KT 2SM BR BKN006=

USA.gov is the U.S. government's official web portal to all federal, state and local government web resources and services.